Slater, IA (50244)

8:53 PM CST on November 23, 2014 (GMT -0600)
Benton Street | Change Station
CLOSE
Current Station
Personal Weather Station
Location: Slater, IA
Elevation: 1001 ft
Nearby Weather Stations

Elev 1001 ft 41.88 °N, 93.68 °W | Updated 1 second ago

Rain
Rain
37.8 °F
Feels Like 38 °F
N
2.0
Wind Variable Wind from West
Gusts 10.0 mph

Today
High -- | Low -- °F
--% Chance of Precip.
Yesterday
High -- | Low -- °F
Precip. -- in
7:13 AM 4:48 PM
Waxing Crescent, 3% visible
Pressure 29.39 in
Visibility 4.0 miles
Clouds Mostly Cloudy 1300 ft
Mostly Cloudy 2700 ft
Overcast 5000 ft
Windchill 38 °F
Dew Point 38 °F
Humidity 100%
Rainfall 0.23 in
Snow Depth Not available.
UV 0 out of 12
Pollen .10 out of 12
Air Quality Not available.
Flu Activity Not available.
SPECI KAMW 240204Z AUTO 33018G29KT 4SM RA BR BKN013 BKN027 OVC050 03/02 A2939 RMK AO2 PK WND 33029/0157 P0004 T00280017 $

More Conditions Fewer Conditions

Pressure 29.39 in
Visibility 4.0 miles
Clouds Mostly Cloudy 1300 ft
Mostly Cloudy 2700 ft
Overcast 5000 ft
Windchill 38 °F
Dew Point 38 °F
Humidity 100%
Rainfall 0.23 in
Snow Depth Not available.
UV 0 out of 12
Pollen .10 out of 12
Air Quality Not available.
Flu Activity Not available.
SPECI KAMW 240204Z AUTO 33018G29KT 4SM RA BR BKN013 BKN027 OVC050 03/02 A2939 RMK AO2 PK WND 33029/0157 P0004 T00280017 $

More Conditions Fewer Conditions

10-Day Weather Forecast

Almanac

Astronomy

Nov. 23, 2014 Rise Set
Actual Time
Civil Twilight
Nautical Twilight
Astronomical Twilight
Moon
Length of Visible Light
Length of Day
Tomorrow will be .
, % of the Moon is Illuminated

Today's Extremes

State Highs State Lows

Community

WunderPhotos

Upload Photos

1,773,257 photos uploaded!

WunderBlogs® & News

Nearby

Air Quality

  Air Quality AQ Index Pollutant
Not available.

Snow Depth

Station Depth Elevation

Earthquake Activity

City Distance Mag. Time & Date
Minimum magnitude displayed is 2.5.

Coastal Water Temperatures

Place Temperature

Nearby Weather Stations